sensor_id;sensor_type;location;lat;lon;timestamp;temperature;humidity
41987;DHT22;28361;50.740;7.084;2022-07-30T00:43:51;20.20;59.30
41987;DHT22;28361;50.740;7.084;2022-07-30T00:46:17;19.50;81.20
41987;DHT22;28361;50.740;7.084;2022-07-30T00:48:43;19.40;83.10
41987;DHT22;28361;50.740;7.084;2022-07-30T00:51:09;19.40;79.40
41987;DHT22;28361;50.740;7.084;2022-07-30T00:53:35;19.40;82.10
41987;DHT22;28361;50.740;7.084;2022-07-30T00:56:02;19.50;82.10
41987;DHT22;28361;50.740;7.084;2022-07-30T00:58:28;19.50;80.10
41987;DHT22;28361;50.740;7.084;2022-07-30T01:00:54;19.50;79.60
41987;DHT22;28361;50.740;7.084;2022-07-30T01:03:19;19.40;78.00
41987;DHT22;28361;50.740;7.084;2022-07-30T01:05:45;19.40;80.50
41987;DHT22;28361;50.740;7.084;2022-07-30T01:08:11;19.50;80.80
41987;DHT22;28361;50.740;7.084;2022-07-30T01:10:37;19.40;78.80
41987;DHT22;28361;50.740;7.084;2022-07-30T01:13:03;19.40;80.50
41987;DHT22;28361;50.740;7.084;2022-07-30T01:15:29;19.30;78.10
41987;DHT22;28361;50.740;7.084;2022-07-30T01:17:59;19.30;78.30
41987;DHT22;28361;50.740;7.084;2022-07-30T01:23:33;19.20;80.20
41987;DHT22;28361;50.740;7.084;2022-07-30T01:26:12;19.20;78.40
41987;DHT22;28361;50.740;7.084;2022-07-30T01:28:42;19.10;78.50
41987;DHT22;28361;50.740;7.084;2022-07-30T01:31:10;19.00;79.80
41987;DHT22;28361;50.740;7.084;2022-07-30T01:33:41;18.90;81.60
41987;DHT22;28361;50.740;7.084;2022-07-30T01:36:09;18.80;82.60
41987;DHT22;28361;50.740;7.084;2022-07-30T01:38:37;18.70;86.10
41987;DHT22;28361;50.740;7.084;2022-07-30T01:41:05;18.70;86.10
41987;DHT22;28361;50.740;7.084;2022-07-30T01:43:33;18.70;84.90
41987;DHT22;28361;50.740;7.084;2022-07-30T01:46:02;18.70;86.10
41987;DHT22;28361;50.740;7.084;2022-07-30T01:48:28;18.70;88.10
41987;DHT22;28361;50.740;7.084;2022-07-30T01:50:57;18.70;85.10
41987;DHT22;28361;50.740;7.084;2022-07-30T01:53:26;18.70;84.90
41987;DHT22;28361;50.740;7.084;2022-07-30T01:55:55;18.60;85.20
41987;DHT22;28361;50.740;7.084;2022-07-30T01:58:24;18.60;86.00
41987;DHT22;28361;50.740;7.084;2022-07-30T02:00:53;18.60;86.00
41987;DHT22;28361;50.740;7.084;2022-07-30T02:03:19;18.60;86.00
41987;DHT22;28361;50.740;7.084;2022-07-30T02:05:51;18.60;85.20
41987;DHT22;28361;50.740;7.084;2022-07-30T02:11:15;18.60;84.10
41987;DHT22;28361;50.740;7.084;2022-07-30T02:14:02;18.50;86.50
41987;DHT22;28361;50.740;7.084;2022-07-30T02:16:35;18.60;84.00
41987;DHT22;28361;50.740;7.084;2022-07-30T02:19:06;18.50;83.30
41987;DHT22;28361;50.740;7.084;2022-07-30T02:21:37;18.60;84.10
41987;DHT22;28361;50.740;7.084;2022-07-30T02:24:07;18.50;84.30
41987;DHT22;28361;50.740;7.084;2022-07-30T02:26:37;18.40;85.90
41987;DHT22;28361;50.740;7.084;2022-07-30T02:29:06;18.40;82.70
41987;DHT22;28361;50.740;7.084;2022-07-30T02:31:33;18.40;82.90
41987;DHT22;28361;50.740;7.084;2022-07-30T02:34:02;18.30;83.30
41987;DHT22;28361;50.740;7.084;2022-07-30T02:36:30;18.30;85.80
41987;DHT22;28361;50.740;7.084;2022-07-30T02:38:57;18.40;84.00
41987;DHT22;28361;50.740;7.084;2022-07-30T02:41:26;18.40;83.10
41987;DHT22;28361;50.740;7.084;2022-07-30T02:43:54;18.30;85.80
41987;DHT22;28361;50.740;7.084;2022-07-30T02:46:22;18.30;84.50
41987;DHT22;28361;50.740;7.084;2022-07-30T02:48:49;18.30;85.80
41987;DHT22;28361;50.740;7.084;2022-07-30T02:51:17;18.30;84.40
41987;DHT22;28361;50.740;7.084;2022-07-30T02:53:45;18.20;85.00
41987;DHT22;28361;50.740;7.084;2022-07-30T02:56:12;18.20;85.70
41987;DHT22;28361;50.740;7.084;2022-07-30T02:58:42;18.20;85.70
41987;DHT22;28361;50.740;7.084;2022-07-30T03:01:10;18.10;85.60
41987;DHT22;28361;50.740;7.084;2022-07-30T03:03:36;18.00;85.60
41987;DHT22;28361;50.740;7.084;2022-07-30T03:06:03;17.90;87.60
41987;DHT22;28361;50.740;7.084;2022-07-30T03:08:31;17.90;88.10
41987;DHT22;28361;50.740;7.084;2022-07-30T03:10:57;17.90;88.00
41987;DHT22;28361;50.740;7.084;2022-07-30T03:13:24;17.90;88.40
41987;DHT22;28361;50.740;7.084;2022-07-30T03:15:51;17.90;89.40
41987;DHT22;28361;50.740;7.084;2022-07-30T03:18:19;17.90;89.60
41987;DHT22;28361;50.740;7.084;2022-07-30T03:20:49;17.80;90.30
41987;DHT22;28361;50.740;7.084;2022-07-30T03:23:17;17.80;90.40
41987;DHT22;28361;50.740;7.084;2022-07-30T03:25:51;17.80;89.70
41987;DHT22;28361;50.740;7.084;2022-07-30T03:28:17;17.80;90.30
41987;DHT22;28361;50.740;7.084;2022-07-30T03:30:44;17.70;90.90
41987;DHT22;28361;50.740;7.084;2022-07-30T03:33:11;17.70;91.20
41987;DHT22;28361;50.740;7.084;2022-07-30T03:35:37;17.70;91.70
41987;DHT22;28361;50.740;7.084;2022-07-30T03:38:06;17.70;92.00
41987;DHT22;28361;50.740;7.084;2022-07-30T03:40:32;17.60;91.90
41987;DHT22;28361;50.740;7.084;2022-07-30T03:42:58;17.60;92.30
41987;DHT22;28361;50.740;7.084;2022-07-30T03:45:25;17.70;92.40
41987;DHT22;28361;50.740;7.084;2022-07-30T03:47:51;17.70;92.20
41987;DHT22;28361;50.740;7.084;2022-07-30T03:50:17;17.60;92.30
41987;DHT22;28361;50.740;7.084;2022-07-30T03:52:43;17.70;92.30
41987;DHT22;28361;50.740;7.084;2022-07-30T03:55:10;17.60;92.90
41987;DHT22;28361;50.740;7.084;2022-07-30T03:57:37;17.60;92.80
41987;DHT22;28361;50.740;7.084;2022-07-30T04:00:08;17.50;93.20
41987;DHT22;28361;50.740;7.084;2022-07-30T04:02:44;17.50;93.80
41987;DHT22;28361;50.740;7.084;2022-07-30T04:05:12;17.50;93.40
41987;DHT22;28361;50.740;7.084;2022-07-30T04:07:38;17.50;94.10
41987;DHT22;28361;50.740;7.084;2022-07-30T04:10:04;17.50;93.60
41987;DHT22;28361;50.740;7.084;2022-07-30T04:12:30;17.50;93.80
41987;DHT22;28361;50.740;7.084;2022-07-30T04:14:56;17.50;93.60
41987;DHT22;28361;50.740;7.084;2022-07-30T04:17:28;17.40;93.90
41987;DHT22;28361;50.740;7.084;2022-07-30T04:20:00;17.40;94.20
41987;DHT22;28361;50.740;7.084;2022-07-30T04:22:30;17.40;94.40
41987;DHT22;28361;50.740;7.084;2022-07-30T04:24:57;17.40;94.30
41987;DHT22;28361;50.740;7.084;2022-07-30T04:27:24;17.40;94.40
41987;DHT22;28361;50.740;7.084;2022-07-30T04:29:54;17.40;94.60
41987;DHT22;28361;50.740;7.084;2022-07-30T04:32:20;17.40;94.60
41987;DHT22;28361;50.740;7.084;2022-07-30T04:34:50;17.30;95.00
41987;DHT22;28361;50.740;7.084;2022-07-30T04:37:17;17.30;95.40
41987;DHT22;28361;50.740;7.084;2022-07-30T04:39:44;17.30;95.50
41987;DHT22;28361;50.740;7.084;2022-07-30T04:42:10;17.20;95.90
41987;DHT22;28361;50.740;7.084;2022-07-30T04:44:36;17.20;96.10
41987;DHT22;28361;50.740;7.084;2022-07-30T04:47:02;17.20;96.10
41987;DHT22;28361;50.740;7.084;2022-07-30T04:49:29;17.20;96.30
41987;DHT22;28361;50.740;7.084;2022-07-30T04:51:56;17.20;96.10
41987;DHT22;28361;50.740;7.084;2022-07-30T04:54:23;17.20;96.80
41987;DHT22;28361;50.740;7.084;2022-07-30T04:56:50;17.20;96.60
41987;DHT22;28361;50.740;7.084;2022-07-30T04:59:17;17.20;96.50
41987;DHT22;28361;50.740;7.084;2022-07-30T05:01:46;17.10;96.90
41987;DHT22;28361;50.740;7.084;2022-07-30T05:04:13;17.20;97.20
41987;DHT22;28361;50.740;7.084;2022-07-30T05:06:41;17.20;97.00
41987;DHT22;28361;50.740;7.084;2022-07-30T05:09:07;17.10;97.40
41987;DHT22;28361;50.740;7.084;2022-07-30T05:11:33;17.10;97.40
41987;DHT22;28361;50.740;7.084;2022-07-30T05:13:59;17.20;97.70
41987;DHT22;28361;50.740;7.084;2022-07-30T05:16:25;17.30;97.30
41987;DHT22;28361;50.740;7.084;2022-07-30T05:18:52;17.40;97.40
41987;DHT22;28361;50.740;7.084;2022-07-30T05:21:17;17.40;97.00
41987;DHT22;28361;50.740;7.084;2022-07-30T05:23:43;17.50;97.20
41987;DHT22;28361;50.740;7.084;2022-07-30T05:26:09;17.50;97.30
41987;DHT22;28361;50.740;7.084;2022-07-30T05:28:35;17.60;97.40
41987;DHT22;28361;50.740;7.084;2022-07-30T05:31:00;17.60;96.70
41987;DHT22;28361;50.740;7.084;2022-07-30T05:33:26;17.60;97.00
41987;DHT22;28361;50.740;7.084;2022-07-30T05:35:52;17.70;97.10
41987;DHT22;28361;50.740;7.084;2022-07-30T05:38:18;17.90;96.60
41987;DHT22;28361;50.740;7.084;2022-07-30T05:40:43;17.80;96.20
41987;DHT22;28361;50.740;7.084;2022-07-30T05:43:11;17.90;96.60
41987;DHT22;28361;50.740;7.084;2022-07-30T05:45:37;17.80;97.10
41987;DHT22;28361;50.740;7.084;2022-07-30T05:48:03;17.80;97.30
41987;DHT22;28361;50.740;7.084;2022-07-30T05:50:29;17.80;97.70
41987;DHT22;28361;50.740;7.084;2022-07-30T05:52:54;17.90;97.00
41987;DHT22;28361;50.740;7.084;2022-07-30T05:55:22;18.00;96.80
41987;DHT22;28361;50.740;7.084;2022-07-30T05:57:48;17.90;96.80
41987;DHT22;28361;50.740;7.084;2022-07-30T06:00:14;18.00;97.30
41987;DHT22;28361;50.740;7.084;2022-07-30T06:02:40;17.90;97.50
41987;DHT22;28361;50.740;7.084;2022-07-30T06:05:06;18.20;96.90
41987;DHT22;28361;50.740;7.084;2022-07-30T06:07:32;18.30;96.30
41987;DHT22;28361;50.740;7.084;2022-07-30T06:09:59;18.60;97.20
41987;DHT22;28361;50.740;7.084;2022-07-30T06:12:28;18.70;95.30
41987;DHT22;28361;50.740;7.084;2022-07-30T06:14:54;18.60;95.80
41987;DHT22;28361;50.740;7.084;2022-07-30T06:17:20;18.40;96.80
41987;DHT22;28361;50.740;7.084;2022-07-30T06:19:46;18.40;96.90
41987;DHT22;28361;50.740;7.084;2022-07-30T06:22:12;18.20;97.40
41987;DHT22;28361;50.740;7.084;2022-07-30T06:24:37;18.60;97.90
41987;DHT22;28361;50.740;7.084;2022-07-30T06:27:03;18.80;96.70
41987;DHT22;28361;50.740;7.084;2022-07-30T06:29:29;18.80;96.50
41987;DHT22;28361;50.740;7.084;2022-07-30T06:31:54;19.00;95.50
41987;DHT22;28361;50.740;7.084;2022-07-30T06:34:20;18.90;95.30
41987;DHT22;28361;50.740;7.084;2022-07-30T06:36:47;19.00;95.70
41987;DHT22;28361;50.740;7.084;2022-07-30T06:39:12;19.20;94.90
41987;DHT22;28361;50.740;7.084;2022-07-30T06:41:38;19.40;95.60
41987;DHT22;28361;50.740;7.084;2022-07-30T06:44:04;19.50;95.40
41987;DHT22;28361;50.740;7.084;2022-07-30T06:46:29;19.60;94.30
41987;DHT22;28361;50.740;7.084;2022-07-30T06:48:55;19.40;93.40
41987;DHT22;28361;50.740;7.084;2022-07-30T06:51:21;19.50;95.40
41987;DHT22;28361;50.740;7.084;2022-07-30T06:53:46;19.70;93.50
41987;DHT22;28361;50.740;7.084;2022-07-30T06:56:13;19.80;92.90
41987;DHT22;28361;50.740;7.084;2022-07-30T06:58:39;19.80;92.50
41987;DHT22;28361;50.740;7.084;2022-07-30T07:01:05;19.60;93.70
41987;DHT22;28361;50.740;7.084;2022-07-30T07:03:31;20.00;92.70
41987;DHT22;28361;50.740;7.084;2022-07-30T07:05:56;20.20;92.80
41987;DHT22;28361;50.740;7.084;2022-07-30T07:08:22;20.60;91.30
41987;DHT22;28361;50.740;7.084;2022-07-30T07:10:48;20.80;91.50
41987;DHT22;28361;50.740;7.084;2022-07-30T07:13:14;20.50;88.80
41987;DHT22;28361;50.740;7.084;2022-07-30T07:15:40;20.20;89.40
41987;DHT22;28361;50.740;7.084;2022-07-30T07:18:06;20.20;90.30
41987;DHT22;28361;50.740;7.084;2022-07-30T07:20:33;20.40;90.80
41987;DHT22;28361;50.740;7.084;2022-07-30T07:22:59;20.80;91.00
41987;DHT22;28361;50.740;7.084;2022-07-30T07:25:25;21.30;83.30
41987;DHT22;28361;50.740;7.084;2022-07-30T07:27:51;21.70;73.10
41987;DHT22;28361;50.740;7.084;2022-07-30T07:30:16;21.80;76.30
41987;DHT22;28361;50.740;7.084;2022-07-30T07:32:42;21.90;76.40
41987;DHT22;28361;50.740;7.084;2022-07-30T07:35:08;22.40;61.50
41987;DHT22;28361;50.740;7.084;2022-07-30T07:37:34;22.90;57.60
41987;DHT22;28361;50.740;7.084;2022-07-30T07:40:00;22.30;52.10
41987;DHT22;28361;50.740;7.084;2022-07-30T07:42:26;21.90;61.00
41987;DHT22;28361;50.740;7.084;2022-07-30T07:44:51;21.80;63.30
41987;DHT22;28361;50.740;7.084;2022-07-30T07:47:17;22.60;61.70
41987;DHT22;28361;50.740;7.084;2022-07-30T07:49:43;23.30;52.80
41987;DHT22;28361;50.740;7.084;2022-07-30T07:52:09;23.30;37.30
41987;DHT22;28361;50.740;7.084;2022-07-30T07:54:34;23.90;39.10
41987;DHT22;28361;50.740;7.084;2022-07-30T07:57:00;24.30;31.60
41987;DHT22;28361;50.740;7.084;2022-07-30T07:59:28;24.50;19.00
41987;DHT22;28361;50.740;7.084;2022-07-30T08:01:54;24.60;26.40
41987;DHT22;28361;50.740;7.084;2022-07-30T08:04:19;24.80;22.70
41987;DHT22;28361;50.740;7.084;2022-07-30T08:06:45;25.40;23.70
41987;DHT22;28361;50.740;7.084;2022-07-30T08:09:11;25.50;16.00
41987;DHT22;28361;50.740;7.084;2022-07-30T08:11:36;25.30;9.30
41987;DHT22;28361;50.740;7.084;2022-07-30T08:14:02;25.50;13.80
41987;DHT22;28361;50.740;7.084;2022-07-30T08:16:28;25.70;12.90
41987;DHT22;28361;50.740;7.084;2022-07-30T08:18:53;25.90;13.40
41987;DHT22;28361;50.740;7.084;2022-07-30T08:21:19;25.60;14.70
41987;DHT22;28361;50.740;7.084;2022-07-30T08:23:45;25.40;9.40
41987;DHT22;28361;50.740;7.084;2022-07-30T08:26:10;24.30;22.60
41987;DHT22;28361;50.740;7.084;2022-07-30T08:28:36;25.10;18.10
41987;DHT22;28361;50.740;7.084;2022-07-30T08:31:02;25.00;12.90
41987;DHT22;28361;50.740;7.084;2022-07-30T08:33:28;24.60;16.30
41987;DHT22;28361;50.740;7.084;2022-07-30T08:35:54;24.70;13.70
41987;DHT22;28361;50.740;7.084;2022-07-30T08:38:19;24.50;19.20
41987;DHT22;28361;50.740;7.084;2022-07-30T08:40:45;25.20;16.30
41987;DHT22;28361;50.740;7.084;2022-07-30T08:43:11;25.60;9.00
41987;DHT22;28361;50.740;7.084;2022-07-30T08:45:37;26.00;7.20
41987;DHT22;28361;50.740;7.084;2022-07-30T08:48:07;26.00;4.60
41987;DHT22;28361;50.740;7.084;2022-07-30T08:50:35;25.30;12.70
41987;DHT22;28361;50.740;7.084;2022-07-30T08:53:01;24.40;8.60
41987;DHT22;28361;50.740;7.084;2022-07-30T08:55:27;23.60;17.10
41987;DHT22;28361;50.740;7.084;2022-07-30T08:57:53;24.30;22.70
41987;DHT22;28361;50.740;7.084;2022-07-30T09:00:19;25.30;13.10
41987;DHT22;28361;50.740;7.084;2022-07-30T09:02:45;25.60;10.40
41987;DHT22;28361;50.740;7.084;2022-07-30T09:05:12;25.30;6.90
41987;DHT22;28361;50.740;7.084;2022-07-30T09:07:39;26.10;7.80
41987;DHT22;28361;50.740;7.084;2022-07-30T09:10:07;27.00;3.80
41987;DHT22;28361;50.740;7.084;2022-07-30T09:12:37;27.20;1.00
41987;DHT22;28361;50.740;7.084;2022-07-30T09:17:56;26.40;1.00
41987;DHT22;28361;50.740;7.084;2022-07-30T09:20:28;25.70;2.50
41987;DHT22;28361;50.740;7.084;2022-07-30T09:22:59;25.10;6.90
41987;DHT22;28361;50.740;7.084;2022-07-30T09:25:37;25.20;6.80
41987;DHT22;28361;50.740;7.084;2022-07-30T09:28:05;25.30;4.30
41987;DHT22;28361;50.740;7.084;2022-07-30T09:30:48;25.40;1.00
41987;DHT22;28361;50.740;7.084;2022-07-30T09:33:16;25.40;8.80
41987;DHT22;28361;50.740;7.084;2022-07-30T09:35:58;26.00;2.80
41987;DHT22;28361;50.740;7.084;2022-07-30T09:38:24;27.30;1.00
41987;DHT22;28361;50.740;7.084;2022-07-30T09:40:55;27.20;1.00
41987;DHT22;28361;50.740;7.084;2022-07-30T09:43:22;27.40;1.00
41987;DHT22;28361;50.740;7.084;2022-07-30T09:45:55;26.40;1.00
41987;DHT22;28361;50.740;7.084;2022-07-30T09:48:26;25.80;1.00
41987;DHT22;28361;50.740;7.084;2022-07-30T09:50:53;26.60;4.50
41987;DHT22;28361;50.740;7.084;2022-07-30T09:53:20;25.50;1.00
41987;DHT22;28361;50.740;7.084;2022-07-30T09:55:49;25.10;3.90
41987;DHT22;28361;50.740;7.084;2022-07-30T09:58:14;25.30;1.00
41987;DHT22;28361;50.740;7.084;2022-07-30T10:00:41;25.50;5.80
41987;DHT22;28361;50.740;7.084;2022-07-30T10:03:14;26.90;1.00
41987;DHT22;28361;50.740;7.084;2022-07-30T10:05:55;28.10;1.00
41987;DHT22;28361;50.740;7.084;2022-07-30T10:08:44;28.10;1.00
41987;DHT22;28361;50.740;7.084;2022-07-30T10:11:12;28.10;1.00
41987;DHT22;28361;50.740;7.084;2022-07-30T10:13:42;28.80;1.00
41987;DHT22;28361;50.740;7.084;2022-07-30T10:16:08;29.50;1.00
41987;DHT22;28361;50.740;7.084;2022-07-30T10:18:35;29.60;1.00
41987;DHT22;28361;50.740;7.084;2022-07-30T10:21:02;28.50;1.00
41987;DHT22;28361;50.740;7.084;2022-07-30T10:23:29;27.40;1.00
41987;DHT22;28361;50.740;7.084;2022-07-30T10:26:00;27.60;1.00
41987;DHT22;28361;50.740;7.084;2022-07-30T10:28:29;28.30;1.00
41987;DHT22;28361;50.740;7.084;2022-07-30T10:31:01;28.40;1.00
41987;DHT22;28361;50.740;7.084;2022-07-30T10:33:34;28.60;1.00
41987;DHT22;28361;50.740;7.084;2022-07-30T10:36:00;28.50;1.00
41987;DHT22;28361;50.740;7.084;2022-07-30T10:38:31;29.20;1.00
41987;DHT22;28361;50.740;7.084;2022-07-30T10:41:22;29.30;1.00
41987;DHT22;28361;50.740;7.084;2022-07-30T10:44:26;29.00;1.00
41987;DHT22;28361;50.740;7.084;2022-07-30T10:47:15;28.30;1.00
41987;DHT22;28361;50.740;7.084;2022-07-30T10:52:56;28.80;1.00
41987;DHT22;28361;50.740;7.084;2022-07-30T10:55:25;29.30;1.00
41987;DHT22;28361;50.740;7.084;2022-07-30T10:58:12;30.00;1.00
41987;DHT22;28361;50.740;7.084;2022-07-30T11:03:22;31.20;1.00
41987;DHT22;28361;50.740;7.084;2022-07-30T11:06:23;30.70;1.00
41987;DHT22;28361;50.740;7.084;2022-07-30T11:08:46;30.40;1.00
41987;DHT22;28361;50.740;7.084;2022-07-30T11:16:19;30.20;1.00
41987;DHT22;28361;50.740;7.084;2022-07-30T11:19:05;30.60;1.00
41987;DHT22;28361;50.740;7.084;2022-07-30T11:21:32;29.90;1.00
41987;DHT22;28361;50.740;7.084;2022-07-30T11:23:58;30.00;1.00
41987;DHT22;28361;50.740;7.084;2022-07-30T11:29:33;30.60;1.00
41987;DHT22;28361;50.740;7.084;2022-07-30T11:32:24;30.70;1.00
41987;DHT22;28361;50.740;7.084;2022-07-30T11:34:51;30.30;1.00
41987;DHT22;28361;50.740;7.084;2022-07-30T11:37:17;29.30;1.00
41987;DHT22;28361;50.740;7.084;2022-07-30T11:40:06;29.80;1.00
41987;DHT22;28361;50.740;7.084;2022-07-30T11:42:34;29.40;1.00
41987;DHT22;28361;50.740;7.084;2022-07-30T11:47:46;28.40;1.00
41987;DHT22;28361;50.740;7.084;2022-07-30T11:53:05;29.00;1.00
41987;DHT22;28361;50.740;7.084;2022-07-30T11:55:36;29.30;1.00
41987;DHT22;28361;50.740;7.084;2022-07-30T11:58:05;29.10;1.00
41987;DHT22;28361;50.740;7.084;2022-07-30T12:00:42;28.50;1.00
41987;DHT22;28361;50.740;7.084;2022-07-30T12:03:15;28.40;1.00
41987;DHT22;28361;50.740;7.084;2022-07-30T12:05:41;28.30;1.00
41987;DHT22;28361;50.740;7.084;2022-07-30T12:08:08;28.50;1.00
41987;DHT22;28361;50.740;7.084;2022-07-30T12:10:34;28.90;1.00
41987;DHT22;28361;50.740;7.084;2022-07-30T12:13:14;29.20;1.00
41987;DHT22;28361;50.740;7.084;2022-07-30T12:15:45;29.40;1.00
41987;DHT22;28361;50.740;7.084;2022-07-30T12:18:12;29.20;1.00
41987;DHT22;28361;50.740;7.084;2022-07-30T12:20:39;29.50;1.00
41987;DHT22;28361;50.740;7.084;2022-07-30T12:23:12;29.60;1.00
41987;DHT22;28361;50.740;7.084;2022-07-30T12:25:39;29.80;1.00
41987;DHT22;28361;50.740;7.084;2022-07-30T12:28:06;30.10;1.00
41987;DHT22;28361;50.740;7.084;2022-07-30T12:30:32;30.10;1.00
41987;DHT22;28361;50.740;7.084;2022-07-30T12:32:58;30.60;1.00
41987;DHT22;28361;50.740;7.084;2022-07-30T12:38:09;30.90;1.00
41987;DHT22;28361;50.740;7.084;2022-07-30T12:40:50;31.20;1.00
41987;DHT22;28361;50.740;7.084;2022-07-30T12:43:16;30.20;1.00
41987;DHT22;28361;50.740;7.084;2022-07-30T12:45:42;29.60;1.00
41987;DHT22;28361;50.740;7.084;2022-07-30T12:48:11;28.50;1.00
41987;DHT22;28361;50.740;7.084;2022-07-30T12:50:38;28.20;1.00
41987;DHT22;28361;50.740;7.084;2022-07-30T12:53:04;28.70;1.00
41987;DHT22;28361;50.740;7.084;2022-07-30T12:55:32;29.20;1.00
41987;DHT22;28361;50.740;7.084;2022-07-30T12:58:03;28.90;1.00
41987;DHT22;28361;50.740;7.084;2022-07-30T13:03:24;29.20;1.00
41987;DHT22;28361;50.740;7.084;2022-07-30T13:05:52;29.00;1.00
41987;DHT22;28361;50.740;7.084;2022-07-30T13:08:18;29.20;1.00
41987;DHT22;28361;50.740;7.084;2022-07-30T13:10:55;29.50;1.00
41987;DHT22;28361;50.740;7.084;2022-07-30T13:13:21;30.00;1.00
41987;DHT22;28361;50.740;7.084;2022-07-30T13:16:00;29.00;1.00
41987;DHT22;28361;50.740;7.084;2022-07-30T13:18:27;29.20;1.00
41987;DHT22;28361;50.740;7.084;2022-07-30T13:20:54;29.80;1.00
41987;DHT22;28361;50.740;7.084;2022-07-30T13:23:21;29.80;1.00
41987;DHT22;28361;50.740;7.084;2022-07-30T13:25:46;29.80;1.00
41987;DHT22;28361;50.740;7.084;2022-07-30T13:28:12;30.20;1.00
41987;DHT22;28361;50.740;7.084;2022-07-30T13:30:38;30.30;1.00
41987;DHT22;28361;50.740;7.084;2022-07-30T13:33:04;30.60;1.00
41987;DHT22;28361;50.740;7.084;2022-07-30T13:35:29;30.50;1.00
41987;DHT22;28361;50.740;7.084;2022-07-30T13:37:55;29.90;1.00
41987;DHT22;28361;50.740;7.084;2022-07-30T13:40:21;29.80;1.00
41987;DHT22;28361;50.740;7.084;2022-07-30T13:42:47;30.20;1.00
41987;DHT22;28361;50.740;7.084;2022-07-30T13:45:13;31.20;1.00
41987;DHT22;28361;50.740;7.084;2022-07-30T13:47:39;32.00;1.00
41987;DHT22;28361;50.740;7.084;2022-07-30T13:50:05;31.80;1.00
41987;DHT22;28361;50.740;7.084;2022-07-30T13:52:31;31.70;1.00
41987;DHT22;28361;50.740;7.084;2022-07-30T13:54:57;31.10;1.00
41987;DHT22;28361;50.740;7.084;2022-07-30T13:57:23;30.50;1.00
41987;DHT22;28361;50.740;7.084;2022-07-30T13:59:48;29.80;1.00
41987;DHT22;28361;50.740;7.084;2022-07-30T14:02:14;29.50;1.00
41987;DHT22;28361;50.740;7.084;2022-07-30T14:04:40;29.10;1.00
41987;DHT22;28361;50.740;7.084;2022-07-30T14:07:05;28.90;1.00
41987;DHT22;28361;50.740;7.084;2022-07-30T14:09:31;28.70;1.00
41987;DHT22;28361;50.740;7.084;2022-07-30T14:11:57;29.30;1.00
41987;DHT22;28361;50.740;7.084;2022-07-30T14:14:23;29.30;1.00
41987;DHT22;28361;50.740;7.084;2022-07-30T14:16:49;29.90;1.00
41987;DHT22;28361;50.740;7.084;2022-07-30T14:19:16;30.60;1.00
41987;DHT22;28361;50.740;7.084;2022-07-30T14:21:42;30.70;1.00
41987;DHT22;28361;50.740;7.084;2022-07-30T14:24:08;30.00;1.00
41987;DHT22;28361;50.740;7.084;2022-07-30T14:26:36;29.40;1.00
41987;DHT22;28361;50.740;7.084;2022-07-30T14:29:06;28.60;1.00
41987;DHT22;28361;50.740;7.084;2022-07-30T14:31:32;28.60;1.00
41987;DHT22;28361;50.740;7.084;2022-07-30T14:33:58;29.30;1.00
41987;DHT22;28361;50.740;7.084;2022-07-30T14:36:24;29.70;1.00
41987;DHT22;28361;50.740;7.084;2022-07-30T14:38:52;30.10;1.00
41987;DHT22;28361;50.740;7.084;2022-07-30T14:41:18;29.90;1.00
41987;DHT22;28361;50.740;7.084;2022-07-30T14:43:44;30.10;1.00
41987;DHT22;28361;50.740;7.084;2022-07-30T14:46:09;30.60;1.00
41987;DHT22;28361;50.740;7.084;2022-07-30T14:48:35;30.00;1.00
41987;DHT22;28361;50.740;7.084;2022-07-30T14:51:01;29.90;1.00
41987;DHT22;28361;50.740;7.084;2022-07-30T14:53:28;29.80;1.00
41987;DHT22;28361;50.740;7.084;2022-07-30T14:55:54;30.20;1.00
41987;DHT22;28361;50.740;7.084;2022-07-30T14:58:19;31.00;1.00
41987;DHT22;28361;50.740;7.084;2022-07-30T15:00:45;30.70;1.00
41987;DHT22;28361;50.740;7.084;2022-07-30T15:03:11;30.50;1.00
41987;DHT22;28361;50.740;7.084;2022-07-30T15:05:36;30.40;1.00
41987;DHT22;28361;50.740;7.084;2022-07-30T15:08:02;30.40;1.00
41987;DHT22;28361;50.740;7.084;2022-07-30T15:10:28;30.60;1.00
41987;DHT22;28361;50.740;7.084;2022-07-30T15:12:53;30.70;1.00
41987;DHT22;28361;50.740;7.084;2022-07-30T15:15:19;31.10;1.00
41987;DHT22;28361;50.740;7.084;2022-07-30T15:17:45;31.50;1.00
41987;DHT22;28361;50.740;7.084;2022-07-30T15:20:11;31.30;1.00
41987;DHT22;28361;50.740;7.084;2022-07-30T15:22:37;31.40;1.00
41987;DHT22;28361;50.740;7.084;2022-07-30T15:25:03;31.10;1.00
41987;DHT22;28361;50.740;7.084;2022-07-30T15:27:29;30.90;1.00
41987;DHT22;28361;50.740;7.084;2022-07-30T15:29:56;31.20;1.00
41987;DHT22;28361;50.740;7.084;2022-07-30T15:32:21;31.50;1.00
41987;DHT22;28361;50.740;7.084;2022-07-30T15:34:47;31.40;1.00
41987;DHT22;28361;50.740;7.084;2022-07-30T15:37:13;31.30;1.00
41987;DHT22;28361;50.740;7.084;2022-07-30T15:39:40;31.60;1.00
41987;DHT22;28361;50.740;7.084;2022-07-30T15:42:06;32.10;1.00
41987;DHT22;28361;50.740;7.084;2022-07-30T15:44:31;32.80;1.00
41987;DHT22;28361;50.740;7.084;2022-07-30T15:46:58;32.80;1.00
41987;DHT22;28361;50.740;7.084;2022-07-30T15:49:24;32.30;1.00
41987;DHT22;28361;50.740;7.084;2022-07-30T15:51:50;31.80;1.00
41987;DHT22;28361;50.740;7.084;2022-07-30T15:54:18;31.80;1.00
41987;DHT22;28361;50.740;7.084;2022-07-30T15:56:44;32.20;1.00
41987;DHT22;28361;50.740;7.084;2022-07-30T15:59:13;32.00;1.00
41987;DHT22;28361;50.740;7.084;2022-07-30T16:01:38;30.80;1.00
41987;DHT22;28361;50.740;7.084;2022-07-30T16:04:04;30.70;1.00
41987;DHT22;28361;50.740;7.084;2022-07-30T16:06:30;30.90;1.00
41987;DHT22;28361;50.740;7.084;2022-07-30T16:08:57;31.40;1.00
41987;DHT22;28361;50.740;7.084;2022-07-30T16:11:23;31.50;1.00
41987;DHT22;28361;50.740;7.084;2022-07-30T16:13:49;31.60;1.00
41987;DHT22;28361;50.740;7.084;2022-07-30T16:16:15;31.50;1.00
41987;DHT22;28361;50.740;7.084;2022-07-30T16:18:41;31.10;1.00
41987;DHT22;28361;50.740;7.084;2022-07-30T16:21:06;31.10;1.00
41987;DHT22;28361;50.740;7.084;2022-07-30T16:23:32;30.70;1.00
41987;DHT22;28361;50.740;7.084;2022-07-30T16:25:59;29.70;1.00
41987;DHT22;28361;50.740;7.084;2022-07-30T16:28:25;29.30;1.00
41987;DHT22;28361;50.740;7.084;2022-07-30T16:30:50;29.20;1.00
41987;DHT22;28361;50.740;7.084;2022-07-30T16:33:17;29.60;1.00
41987;DHT22;28361;50.740;7.084;2022-07-30T16:35:43;30.10;1.00
41987;DHT22;28361;50.740;7.084;2022-07-30T16:38:09;30.70;1.00
41987;DHT22;28361;50.740;7.084;2022-07-30T16:40:35;31.10;1.00
41987;DHT22;28361;50.740;7.084;2022-07-30T16:43:00;31.30;1.00
41987;DHT22;28361;50.740;7.084;2022-07-30T16:45:26;31.30;1.00
41987;DHT22;28361;50.740;7.084;2022-07-30T16:47:53;31.00;1.00
41987;DHT22;28361;50.740;7.084;2022-07-30T16:50:19;30.70;1.00
41987;DHT22;28361;50.740;7.084;2022-07-30T16:52:45;30.20;1.00
41987;DHT22;28361;50.740;7.084;2022-07-30T16:55:11;29.50;1.00
41987;DHT22;28361;50.740;7.084;2022-07-30T16:57:36;29.20;1.00